Hooper Bay Airport
PAHP : now visible

Airfield :











YOU CAN JOIN US ON...

 
LOGIN :

Register | Disclaimer

   EN    FR    IT 

 









Legend :    VFR   Marginal VFR   IFR   Intensive IFR   Very Intensive IFR
Visi :
Ceiling :
>= 8 km
>= 3000ft
5 to 8 km
1000 to 3000 ft
1500m to 5 km
500 to 1000 ft
800 to 1500m
200 to 500 ft
< 800m
< 200 ft
Symbols :   Thunderstorms  Fog  Heavy snow  Heavy precipitations  Wind > 20 kt






- Airport Elevation : 13 ft
- IATA code : HPB


PAHP - Hooper Bay

CURRENT METAR :
  • 010828Z AUTO 15005KT 10SM -RA FEW007 BKN014 OVC055 09/09 A2977 RMK AO2 PNO $

EXPIRED METARs :
  • 010756Z AUTO 16006KT 10SM -RA OVC014 10/08 A2977 RMK AO2 RAB01 SLP081 T01000083 PNO $
  • 010742Z AUTO 16005KT 10SM -RA OVC014 10/08 A2977 RMK AO2 RAB01 PNO $
  • 010725Z AUTO 17005KT 10SM -RA BKN016 10/08 A2977 RMK AO2 RAB01 PNO $
  • 010707Z AUTO 17006KT 10SM -RA BKN014 10/08 A2977 RMK AO2 RAB01 PNO $
  • 010656Z AUTO 19005KT 10SM SCT014 10/08 A2977 RMK AO2 RAB40E50 SLP082 T01000078 PNO $
  • 010606Z AUTO 20006KT 10SM BKN014 10/08 A2977 RMK AO2 PNO $
  • 010556Z AUTO 19007KT 10SM OVC016 10/08 A2977 RMK AO2 SLP081 6//// T01000078 10111 20100 53005 PNO $

TAF N/A
PAZA FIR / North America



MET'MAP, your aeronautical weather chart ! - Copyright ORBIFLY December 2007 - Disclaimer

ORBIFLY MET'MAP TEAM :

Programming & Development : Alexandra Zaïnal
Concept & original design : Baudouin d'Aumeries
Assistance for programming : Marc-Olivier Méhu
Technical & hardware support : Manuel Goepfert

Contact : metmap@orbifly.com




SOURCES & CREDITS :

   NOAA       Earth
Advisory